Pagina principale
METAR-TAF:

METAR-TAF

Aeroporti :

Piggs Peak, Swaziland

latitudine: 25-58-04S, longitudine: 31-15-03E, altezza: 1099 m

Osservazione

Il bollettino è stato emesso 1 ora e 55 minuti fa, alle 05:00 UTC
Vento 6 kt da ovest/nord-ovest
Temperature 12°C
Umidità 35%
Pressione 1027 hPa

METAR: FDPP 180500Z AUTO 30006KT //// // ////// 12/M03 Q1027

Ora: 08:55 (06:55 UTC)


TAF: mancante

Osservazioni e previsioni meteorologiche di più di 4000 aeroporti (messaggi METAR e TAF).

Le stazioni disponibili sono rappresentate dai dischi gialli e rossi sulla carta.

Puntare il mouse per vedere il nome della stazione.

Clicca sopra per visualizzare le osservazioni e previsioni meteorologiche.

Per cambiare la mappa : fare clic sui pulsanti verdi con una croce nera per ingrandire, il pulsante verde con un trattino per diminuire, o sulla freccia verde per le mappe adiacenti.


METAR-TAF: